Time;durP1;ratioP1;P1;durP2;ratioP2;P2;SDS_P1;SDS_P2;PMS_P1;PMS_P2;Temp;Humidity;BMP_temperature;BMP_pressure;BME280_temperature;BME280_humidity;BME280_pressure;Samples;Min_cycle;Max_cycle;Signal;HPM_P1;HPM_P2
2023/07/25 00:00:09;;;;;;;7.35;6.65;;;;;;;;;;2077673;28;20033;-82
2023/07/25 00:01:28;;;;;;;8.43;6.68;;;;;;;;;;2062130;28;20031;-80
2023/07/25 00:02:47;;;;;;;8.15;7.43;;;;;;;;;;2040618;28;20032;-80
2023/07/25 00:04:08;;;;;;;7.38;6.78;;;;;;;;;;2039542;29;20032;-81
2023/07/25 00:05:27;;;;;;;7.13;6.53;;;;;;;;;;2043715;28;20512;-80
2023/07/25 00:06:46;;;;;;;6.82;6.28;;;;;;;;;;2044863;28;20039;-80
2023/07/25 00:08:05;;;;;;;9.00;6.40;;;;;;;;;;2040902;28;20031;-80
2023/07/25 00:09:24;;;;;;;7.60;6.05;;;;;;;;;;2036160;28;20036;-80
2023/07/25 00:10:43;;;;;;;7.40;6.78;;;;;;;;;;2039605;28;20028;-80
2023/07/25 00:12:02;;;;;;;7.22;6.60;;;;;;;;;;2036640;28;20421;-80
2023/07/25 00:13:21;;;;;;;6.82;6.32;;;;;;;;;;2044537;28;20028;-80
2023/07/25 00:14:40;;;;;;;7.80;7.10;;;;;;;;;;2039455;29;20490;-81
2023/07/25 00:15:59;;;;;;;8.32;6.05;;;;;;;;;;2045315;29;20047;-81
2023/07/25 00:17:18;;;;;;;6.95;6.38;;;;;;;;;;2048536;29;20458;-81
2023/07/25 00:18:37;;;;;;;6.50;5.75;;;;;;;;;;2048043;28;20039;-80
2023/07/25 00:19:56;;;;;;;7.68;6.28;;;;;;;;;;2041604;28;20054;-81
2023/07/25 00:21:15;;;;;;;7.95;6.47;;;;;;;;;;2038508;28;20031;-80
2023/07/25 00:22:34;;;;;;;6.57;5.97;;;;;;;;;;2054315;28;20063;-81
2023/07/25 00:23:53;;;;;;;7.25;6.55;;;;;;;;;;2051093;28;20027;-81
2023/07/25 00:25:12;;;;;;;7.55;6.90;;;;;;;;;;2040072;28;20036;-81
2023/07/25 00:26:30;;;;;;;7.32;6.63;;;;;;;;;;2043039;28;20126;-80
2023/07/25 00:27:49;;;;;;;7.72;6.47;;;;;;;;;;2046376;28;20430;-81
2023/07/25 00:29:09;;;;;;;7.53;6.82;;;;;;;;;;2037044;29;20040;-80
2023/07/25 00:30:28;;;;;;;8.10;6.95;;;;;;;;;;2037695;28;20059;-80
2023/07/25 00:31:47;;;;;;;7.80;6.35;;;;;;;;;;2031853;28;20421;-81
2023/07/25 00:33:06;;;;;;;8.82;7.10;;;;;;;;;;2045724;28;20040;-80
2023/07/25 00:34:25;;;;;;;7.47;6.78;;;;;;;;;;2032665;28;20025;-79
2023/07/25 00:35:52;;;;;;;7.05;6.13;;;;;;;;;;2029679;28;20024;-81
2023/07/25 00:37:11;;;;;;;8.35;6.63;;;;;;;;;;2031403;29;20040;-80
2023/07/25 00:38:30;;;;;;;8.32;7.38;;;;;;;;;;2035404;28;20545;-80
2023/07/25 00:39:51;;;;;;;7.40;6.70;;;;;;;;;;2031193;29;20122;-80
2023/07/25 00:41:10;;;;;;;7.70;7.00;;;;;;;;;;2031689;29;20187;-80
2023/07/25 00:42:29;;;;;;;7.82;7.03;;;;;;;;;;2031910;28;20036;-80
2023/07/25 00:43:48;;;;;;;7.95;7.10;;;;;;;;;;2032211;28;20033;-79
2023/07/25 00:45:07;;;;;;;6.55;5.93;;;;;;;;;;2032088;28;20029;-79
2023/07/25 00:46:26;;;;;;;7.40;6.78;;;;;;;;;;2032884;29;20040;-81
2023/07/25 00:47:45;;;;;;;7.72;6.75;;;;;;;;;;2032614;29;20044;-80
2023/07/25 00:49:05;;;;;;;7.68;6.97;;;;;;;;;;2034746;28;20496;-81
2023/07/25 00:50:24;;;;;;;7.15;6.53;;;;;;;;;;2031660;28;20052;-81
2023/07/25 00:51:44;;;;;;;8.30;7.47;;;;;;;;;;2032346;29;20064;-80
2023/07/25 00:53:04;;;;;;;7.22;6.53;;;;;;;;;;2031265;29;20072;-80
2023/07/25 00:54:23;;;;;;;7.82;6.85;;;;;;;;;;2031756;29;20036;-81
2023/07/25 00:55:42;;;;;;;7.78;7.03;;;;;;;;;;2036368;29;20524;-81
2023/07/25 00:57:01;;;;;;;11.35;7.22;;;;;;;;;;2032409;29;20040;-80
2023/07/25 00:58:20;;;;;;;9.90;6.72;;;;;;;;;;2030821;29;20029;-80
2023/07/25 00:59:39;;;;;;;7.90;7.20;;;;;;;;;;2031998;28;20029;-81
2023/07/25 01:01:03;;;;;;;7.45;6.75;;;;;;;;;;2032856;28;20028;-81
2023/07/25 01:02:22;;;;;;;6.68;6.07;;;;;;;;;;2034685;28;20107;-81
2023/07/25 01:03:44;;;;;;;9.23;7.10;;;;;;;;;;2031197;29;20497;-80
2023/07/25 01:05:03;;;;;;;6.78;6.20;;;;;;;;;;2029096;28;20036;-80
2023/07/25 01:06:23;;;;;;;6.85;6.25;;;;;;;;;;2027543;28;20036;-80
2023/07/25 01:07:42;;;;;;;9.50;6.60;;;;;;;;;;2031493;29;20123;-79
2023/07/25 01:09:02;;;;;;;9.18;7.32;;;;;;;;;;2033150;28;20052;-80
2023/07/25 01:10:21;;;;;;;7.88;6.90;;;;;;;;;;2032035;28;20460;-80
2023/07/25 01:11:39;;;;;;;7.88;6.28;;;;;;;;;;2031873;28;20028;-81
2023/07/25 01:12:58;;;;;;;7.47;6.78;;;;;;;;;;2031134;28;20119;-80
2023/07/25 01:14:18;;;;;;;9.40;7.18;;;;;;;;;;2032398;28;20036;-82
2023/07/25 01:15:37;;;;;;;10.00;6.50;;;;;;;;;;2029932;28;20123;-80
2023/07/25 01:16:56;;;;;;;7.78;6.97;;;;;;;;;;2028484;28;20036;-81
2023/07/25 01:18:16;;;;;;;7.93;7.18;;;;;;;;;;2031396;29;20021;-81
2023/07/25 01:19:35;;;;;;;8.52;7.20;;;;;;;;;;2031468;29;20036;-81
2023/07/25 01:20:54;;;;;;;7.70;6.63;;;;;;;;;;2031206;29;20028;-80
2023/07/25 01:22:13;;;;;;;7.38;6.68;;;;;;;;;;2031754;28;20040;-80
2023/07/25 01:23:33;;;;;;;6.95;6.38;;;;;;;;;;2036296;29;20405;-80
2023/07/25 01:24:53;;;;;;;7.30;6.28;;;;;;;;;;2032038;29;20107;-80
2023/07/25 01:26:12;;;;;;;7.80;7.00;;;;;;;;;;2037813;28;20028;-80
2023/07/25 01:27:32;;;;;;;8.52;6.88;;;;;;;;;;2035166;28;20032;-80
2023/07/25 01:28:51;;;;;;;8.45;7.18;;;;;;;;;;2031882;28;20036;-79
2023/07/25 01:30:10;;;;;;;8.20;7.50;;;;;;;;;;2038358;29;20051;-80
2023/07/25 01:31:29;;;;;;;6.97;6.43;;;;;;;;;;2037044;28;20505;-81
2023/07/25 01:32:48;;;;;;;7.05;6.55;;;;;;;;;;2045121;28;20043;-80
2023/07/25 01:34:07;;;;;;;7.20;6.68;;;;;;;;;;2045163;28;20032;-81
2023/07/25 01:35:26;;;;;;;7.97;6.70;;;;;;;;;;2042660;28;20063;-80
2023/07/25 01:36:46;;;;;;;7.90;6.35;;;;;;;;;;2048033;29;20031;-80
2023/07/25 01:38:05;;;;;;;9.40;7.30;;;;;;;;;;2041308;28;20032;-80
2023/07/25 01:39:24;;;;;;;6.85;6.35;;;;;;;;;;2043764;28;20031;-82
2023/07/25 01:40:43;;;;;;;6.57;6.05;;;;;;;;;;2039855;29;20023;-81
2023/07/25 01:42:02;;;;;;;8.85;7.50;;;;;;;;;;2044869;28;20027;-81
2023/07/25 01:43:21;;;;;;;7.93;7.18;;;;;;;;;;2039640;28;20020;-80
2023/07/25 01:44:42;;;;;;;9.00;7.40;;;;;;;;;;2044054;28;20496;-80
2023/07/25 01:46:01;;;;;;;7.70;6.85;;;;;;;;;;2047851;28;20031;-81
2023/07/25 01:47:25;;;;;;;6.45;5.85;;;;;;;;;;2039678;28;20454;-81
2023/07/25 01:48:44;;;;;;;8.20;5.82;;;;;;;;;;2078473;28;20029;-80
2023/07/25 01:50:03;;;;;;;8.07;7.38;;;;;;;;;;2061503;28;20031;-80
2023/07/25 01:51:22;;;;;;;7.97;7.20;;;;;;;;;;2047205;29;20023;-80
2023/07/25 01:52:41;;;;;;;9.10;7.13;;;;;;;;;;2050225;28;20109;-80
2023/07/25 01:54:00;;;;;;;7.80;6.97;;;;;;;;;;2047206;28;20035;-80
2023/07/25 01:55:19;;;;;;;8.88;6.80;;;;;;;;;;2039021;29;20440;-80
2023/07/25 01:56:37;;;;;;;7.57;6.85;;;;;;;;;;2045166;29;20023;-80
2023/07/25 01:57:56;;;;;;;10.30;8.30;;;;;;;;;;2040319;28;20039;-80
2023/07/25 01:59:16;;;;;;;8.40;7.57;;;;;;;;;;2047337;28;20032;-80
2023/07/25 02:00:35;;;;;;;7.75;6.82;;;;;;;;;;2044458;29;20031;-80
2023/07/25 02:01:54;;;;;;;7.70;6.95;;;;;;;;;;2047112;28;20027;-81
2023/07/25 02:03:17;;;;;;;8.05;7.43;;;;;;;;;;2047134;28;20403;-80
2023/07/25 02:04:37;;;;;;;8.48;7.35;;;;;;;;;;2037445;29;20039;-81
2023/07/25 02:05:56;;;;;;;7.78;7.05;;;;;;;;;;2038090;28;20028;-80
2023/07/25 02:07:15;;;;;;;8.32;7.55;;;;;;;;;;2080583;28;20352;-80
2023/07/25 02:08:34;;;;;;;9.18;7.35;;;;;;;;;;2064268;28;20036;-81
2023/07/25 02:09:53;;;;;;;8.35;7.40;;;;;;;;;;2040975;29;20032;-81
2023/07/25 02:11:12;;;;;;;8.73;7.88;;;;;;;;;;2036374;29;20036;-80
2023/07/25 02:12:31;;;;;;;7.97;7.20;;;;;;;;;;2045712;28;20024;-81
2023/07/25 02:13:50;;;;;;;8.23;7.43;;;;;;;;;;2047377;29;20020;-81
2023/07/25 02:15:09;;;;;;;7.75;6.97;;;;;;;;;;2042034;28;20431;-81
2023/07/25 02:16:29;;;;;;;9.18;7.78;;;;;;;;;;2047068;28;20026;-80
2023/07/25 02:17:49;;;;;;;9.10;8.20;;;;;;;;;;2079265;28;20061;-80
2023/07/25 02:19:08;;;;;;;7.47;6.88;;;;;;;;;;2063285;28;20027;-81
2023/07/25 02:20:29;;;;;;;7.93;7.00;;;;;;;;;;2042285;28;20044;-80
2023/07/25 02:21:48;;;;;;;8.00;7.43;;;;;;;;;;2038229;28;20033;-80
2023/07/25 02:23:07;;;;;;;10.98;8.27;;;;;;;;;;2035082;29;20036;-81
2023/07/25 02:24:26;;;;;;;8.40;7.60;;;;;;;;;;2080469;28;20104;-81
2023/07/25 02:25:46;;;;;;;8.63;7.55;;;;;;;;;;2056370;28;20028;-80
2023/07/25 02:27:06;;;;;;;8.07;7.25;;;;;;;;;;2048103;28;20066;-80
2023/07/25 02:28:25;;;;;;;8.90;8.20;;;;;;;;;;2047670;29;20051;-81
2023/07/25 02:29:43;;;;;;;11.48;7.60;;;;;;;;;;2048116;28;20122;-81
2023/07/25 02:31:02;;;;;;;8.48;7.75;;;;;;;;;;2039140;28;20036;-81
2023/07/25 02:32:21;;;;;;;9.95;7.68;;;;;;;;;;2034993;28;20028;-80
2023/07/25 02:33:40;;;;;;;8.13;7.43;;;;;;;;;;2046542;28;20511;-81
2023/07/25 02:34:59;;;;;;;8.65;7.85;;;;;;;;;;2037991;28;20037;-80
2023/07/25 02:36:18;;;;;;;10.45;7.95;;;;;;;;;;2044347;29;20027;-80
2023/07/25 02:37:37;;;;;;;8.05;7.25;;;;;;;;;;2041124;28;20032;-79
2023/07/25 02:38:56;;;;;;;9.48;8.00;;;;;;;;;;2043557;28;20548;-80
2023/07/25 02:40:15;;;;;;;8.57;7.70;;;;;;;;;;2037224;29;20047;-80
2023/07/25 02:41:35;;;;;;;10.55;7.07;;;;;;;;;;2045172;28;20035;-79
2023/07/25 02:42:54;;;;;;;8.32;7.20;;;;;;;;;;2041552;28;20444;-79
2023/07/25 02:44:13;;;;;;;8.38;6.97;;;;;;;;;;2044919;29;20031;-80
2023/07/25 02:45:32;;;;;;;8.95;6.88;;;;;;;;;;2044186;28;20037;-80
2023/07/25 02:46:50;;;;;;;10.85;8.38;;;;;;;;;;2042249;28;20020;-81
2023/07/25 02:48:09;;;;;;;10.07;7.50;;;;;;;;;;2039706;28;20035;-81
2023/07/25 02:49:28;;;;;;;8.05;7.28;;;;;;;;;;2046879;29;20031;-80
2023/07/25 02:50:47;;;;;;;9.65;7.90;;;;;;;;;;2055772;28;20100;-80
2023/07/25 02:52:06;;;;;;;9.00;8.02;;;;;;;;;;2057862;29;20027;-80
2023/07/25 02:53:25;;;;;;;11.40;8.02;;;;;;;;;;2057700;28;20014;-80
2023/07/25 02:54:44;;;;;;;8.85;7.95;;;;;;;;;;2054214;29;20020;-81
2023/07/25 02:56:04;;;;;;;7.97;7.30;;;;;;;;;;2056859;29;20059;-80
2023/07/25 02:57:23;;;;;;;9.35;8.50;;;;;;;;;;2056410;29;20031;-79
2023/07/25 02:58:45;;;;;;;9.25;8.20;;;;;;;;;;2053327;29;20047;-80
2023/07/25 03:00:07;;;;;;;8.93;8.10;;;;;;;;;;2053859;28;20396;-81
2023/07/25 03:01:32;;;;;;;9.05;8.32;;;;;;;;;;2050854;28;20086;-80
2023/07/25 03:02:51;;;;;;;8.70;7.80;;;;;;;;;;2041675;29;20028;-79
2023/07/25 03:04:11;;;;;;;8.32;7.53;;;;;;;;;;2048803;28;20031;-81
2023/07/25 03:05:30;;;;;;;9.20;8.45;;;;;;;;;;2049102;29;20031;-81
2023/07/25 03:06:49;;;;;;;7.80;7.20;;;;;;;;;;2048925;28;20437;-80
2023/07/25 03:08:08;;;;;;;8.55;7.75;;;;;;;;;;2049386;29;20114;-80
2023/07/25 03:09:27;;;;;;;9.35;7.70;;;;;;;;;;2049181;28;20043;-81
2023/07/25 03:10:47;;;;;;;8.88;7.40;;;;;;;;;;2048859;29;20439;-80
2023/07/25 03:12:07;;;;;;;9.02;8.07;;;;;;;;;;2047226;28;20063;-80
2023/07/25 03:13:26;;;;;;;9.40;8.50;;;;;;;;;;2045400;28;20071;-80
2023/07/25 03:14:45;;;;;;;9.95;8.95;;;;;;;;;;2043566;28;20032;-81
2023/07/25 03:16:03;;;;;;;9.73;8.30;;;;;;;;;;2052989;28;20027;-80
2023/07/25 03:17:22;;;;;;;12.90;8.68;;;;;;;;;;2048253;29;20023;-81
2023/07/25 03:18:41;;;;;;;9.00;7.88;;;;;;;;;;2040496;28;20059;-80
2023/07/25 03:20:00;;;;;;;9.10;8.15;;;;;;;;;;2035535;28;20028;-81
2023/07/25 03:21:19;;;;;;;9.57;8.55;;;;;;;;;;2045480;29;20106;-80
2023/07/25 03:22:38;;;;;;;9.95;8.95;;;;;;;;;;2048353;28;20027;-80
2023/07/25 03:23:56;;;;;;;13.32;9.18;;;;;;;;;;2041152;28;20044;-80
2023/07/25 03:25:15;;;;;;;9.73;8.57;;;;;;;;;;2049952;28;20035;-80
2023/07/25 03:26:34;;;;;;;9.30;8.13;;;;;;;;;;2042666;28;20036;-80
2023/07/25 03:27:53;;;;;;;11.00;8.75;;;;;;;;;;2047261;28;20040;-79
2023/07/25 03:29:13;;;;;;;12.50;8.13;;;;;;;;;;2044194;28;20038;-80
2023/07/25 03:30:32;;;;;;;10.27;9.38;;;;;;;;;;2045728;28;20061;-80
2023/07/25 03:31:52;;;;;;;12.63;8.85;;;;;;;;;;2041893;28;20044;-79
2023/07/25 03:33:11;;;;;;;9.45;8.55;;;;;;;;;;2036913;29;20516;-80
2023/07/25 03:34:30;;;;;;;10.02;8.95;;;;;;;;;;2038532;28;20032;-80
2023/07/25 03:35:48;;;;;;;9.77;8.80;;;;;;;;;;2045496;28;20050;-80
2023/07/25 03:37:07;;;;;;;12.02;9.18;;;;;;;;;;2040718;29;20032;-81
2023/07/25 03:38:27;;;;;;;9.38;8.60;;;;;;;;;;2044544;28;20508;-80
2023/07/25 03:39:46;;;;;;;8.98;7.47;;;;;;;;;;2048936;29;20031;-82
2023/07/25 03:41:06;;;;;;;8.65;7.72;;;;;;;;;;2049119;28;20102;-80
2023/07/25 03:42:25;;;;;;;9.30;8.00;;;;;;;;;;2040871;28;20036;-79
2023/07/25 03:43:44;;;;;;;9.90;8.38;;;;;;;;;;2036510;28;20027;-81
2023/07/25 03:45:03;;;;;;;9.82;8.88;;;;;;;;;;2036327;28;20055;-80
2023/07/25 03:46:22;;;;;;;10.05;8.95;;;;;;;;;;2045091;29;20483;-81
2023/07/25 03:47:41;;;;;;;14.02;8.68;;;;;;;;;;2048971;28;20035;-81
2023/07/25 03:49:00;;;;;;;8.25;7.50;;;;;;;;;;2048495;29;20497;-80
2023/07/25 03:50:19;;;;;;;9.25;8.35;;;;;;;;;;2046932;29;20043;-79
2023/07/25 03:51:38;;;;;;;7.97;7.22;;;;;;;;;;2040029;28;20032;-79
2023/07/25 03:52:58;;;;;;;8.75;7.95;;;;;;;;;;2078145;28;20034;-80
2023/07/25 03:54:18;;;;;;;11.15;8.07;;;;;;;;;;2061320;28;20027;-81
2023/07/25 03:55:36;;;;;;;10.00;8.13;;;;;;;;;;2032904;28;20119;-79
2023/07/25 03:56:55;;;;;;;8.90;8.10;;;;;;;;;;2042252;28;20036;-81
2023/07/25 03:58:16;;;;;;;7.78;7.18;;;;;;;;;;2047184;28;20389;-81
2023/07/25 03:59:35;;;;;;;8.82;8.02;;;;;;;;;;2043429;28;20086;-80
2023/07/25 04:00:54;;;;;;;11.80;8.18;;;;;;;;;;2044724;29;20481;-80
2023/07/25 04:02:13;;;;;;;10.50;7.70;;;;;;;;;;2049933;28;20028;-81
2023/07/25 04:03:32;;;;;;;9.70;8.02;;;;;;;;;;2048810;29;20035;-81
2023/07/25 04:04:51;;;;;;;9.15;8.40;;;;;;;;;;2048418;28;20027;-80
2023/07/25 04:06:10;;;;;;;11.00;7.82;;;;;;;;;;2048165;28;20496;-81
2023/07/25 04:07:29;;;;;;;8.95;8.05;;;;;;;;;;2038949;29;20489;-81
2023/07/25 04:08:48;;;;;;;9.18;8.32;;;;;;;;;;2044956;28;20071;-80
2023/07/25 04:10:08;;;;;;;9.63;8.50;;;;;;;;;;2045345;28;20047;-82
2023/07/25 04:11:27;;;;;;;8.60;7.85;;;;;;;;;;2044534;28;20028;-80
2023/07/25 04:12:46;;;;;;;8.90;8.00;;;;;;;;;;2055741;28;20028;-81
2023/07/25 04:14:06;;;;;;;7.97;6.90;;;;;;;;;;2040385;28;20067;-81
2023/07/25 04:15:25;;;;;;;8.98;8.13;;;;;;;;;;2037178;29;20032;-81
2023/07/25 04:16:44;;;;;;;10.73;8.30;;;;;;;;;;2044429;29;20035;-81
2023/07/25 04:18:03;;;;;;;9.55;8.18;;;;;;;;;;2043134;28;20063;-81
2023/07/25 04:19:22;;;;;;;10.80;9.73;;;;;;;;;;2044559;28;20071;-80
2023/07/25 04:20:41;;;;;;;9.20;7.72;;;;;;;;;;2041683;29;20031;-80
2023/07/25 04:22:00;;;;;;;11.60;8.60;;;;;;;;;;2035430;28;20024;-80
2023/07/25 04:23:21;;;;;;;9.27;8.38;;;;;;;;;;2047701;28;20086;-82
2023/07/25 04:24:41;;;;;;;8.50;7.70;;;;;;;;;;2040336;28;20032;-80
2023/07/25 04:26:00;;;;;;;10.60;8.00;;;;;;;;;;2045347;28;20070;-81
2023/07/25 04:27:18;;;;;;;10.10;9.10;;;;;;;;;;2048445;28;20020;-80
2023/07/25 04:28:37;;;;;;;9.05;8.20;;;;;;;;;;2053437;28;20031;-80
2023/07/25 04:29:57;;;;;;;9.50;8.20;;;;;;;;;;2039576;28;20160;-80
2023/07/25 04:31:15;;;;;;;10.82;8.77;;;;;;;;;;2045017;28;20104;-79
2023/07/25 04:32:34;;;;;;;11.60;8.27;;;;;;;;;;2045060;28;20028;-80
2023/07/25 04:33:53;;;;;;;9.43;8.70;;;;;;;;;;2036719;29;20039;-81
2023/07/25 04:35:12;;;;;;;10.13;9.13;;;;;;;;;;2049195;28;20499;-80
2023/07/25 04:36:32;;;;;;;9.07;8.38;;;;;;;;;;2039266;28;20036;-80
2023/07/25 04:37:51;;;;;;;7.63;6.80;;;;;;;;;;2044747;28;20035;-80
2023/07/25 04:39:10;;;;;;;9.55;7.95;;;;;;;;;;2043625;28;20028;-80
2023/07/25 04:40:29;;;;;;;7.78;6.97;;;;;;;;;;2044941;28;20039;-81
2023/07/25 04:41:47;;;;;;;8.23;7.35;;;;;;;;;;2043560;28;20031;-80
2023/07/25 04:43:06;;;;;;;8.73;7.93;;;;;;;;;;2077137;28;20088;-81
2023/07/25 04:44:25;;;;;;;8.35;7.75;;;;;;;;;;2053347;28;20028;-80
2023/07/25 04:45:44;;;;;;;9.85;8.27;;;;;;;;;;2044597;28;20109;-80
2023/07/25 04:47:03;;;;;;;9.43;8.27;;;;;;;;;;2038536;29;20035;-80
2023/07/25 04:48:23;;;;;;;10.68;8.20;;;;;;;;;;2041415;28;20040;-83
2023/07/25 04:49:42;;;;;;;10.65;7.10;;;;;;;;;;2049839;28;20036;-81
2023/07/25 04:51:01;;;;;;;9.02;7.35;;;;;;;;;;2048122;28;20027;-79
2023/07/25 04:52:20;;;;;;;7.55;6.85;;;;;;;;;;2047806;29;20059;-80
2023/07/25 04:53:39;;;;;;;7.70;7.10;;;;;;;;;;2039799;29;20071;-80
2023/07/25 04:54:59;;;;;;;7.78;6.97;;;;;;;;;;2046315;28;20031;-80
2023/07/25 04:56:18;;;;;;;7.45;6.95;;;;;;;;;;2039422;28;20027;-80
2023/07/25 04:57:36;;;;;;;8.90;6.55;;;;;;;;;;2039661;28;20024;-81
2023/07/25 04:58:55;;;;;;;8.10;7.30;;;;;;;;;;2045021;28;20059;-81
2023/07/25 05:00:17;;;;;;;7.90;6.55;;;;;;;;;;2048263;28;20393;-81
2023/07/25 05:01:36;;;;;;;7.80;7.00;;;;;;;;;;2051974;28;20031;-82
2023/07/25 05:02:55;;;;;;;9.30;7.13;;;;;;;;;;2039692;28;20031;-80
2023/07/25 05:04:14;;;;;;;7.38;6.38;;;;;;;;;;2038444;28;20024;-81
2023/07/25 05:05:33;;;;;;;7.18;6.47;;;;;;;;;;2049163;28;20034;-80
2023/07/25 05:06:53;;;;;;;6.97;6.28;;;;;;;;;;2046502;28;20058;-81
2023/07/25 05:08:13;;;;;;;6.65;6.15;;;;;;;;;;2041399;28;20537;-81
2023/07/25 05:09:32;;;;;;;7.28;6.03;;;;;;;;;;2045256;28;20039;-81
2023/07/25 05:10:52;;;;;;;6.95;6.40;;;;;;;;;;2047358;28;20040;-81
2023/07/25 05:12:12;;;;;;;6.72;6.18;;;;;;;;;;2043433;28;20028;-80
2023/07/25 05:13:31;;;;;;;6.45;5.95;;;;;;;;;;2044571;28;20047;-80
2023/07/25 05:14:50;;;;;;;7.80;6.55;;;;;;;;;;2041746;28;20055;-80
2023/07/25 05:16:08;;;;;;;7.97;6.85;;;;;;;;;;2035336;29;20099;-81
2023/07/25 05:17:28;;;;;;;8.02;7.28;;;;;;;;;;2046809;28;20027;-81
2023/07/25 05:18:47;;;;;;;6.55;6.00;;;;;;;;;;2040040;28;20031;-81
2023/07/25 05:20:07;;;;;;;6.88;6.25;;;;;;;;;;2046746;28;20027;-81
2023/07/25 05:21:26;;;;;;;6.43;5.78;;;;;;;;;;2047967;29;20035;-81
2023/07/25 05:22:45;;;;;;;7.63;6.78;;;;;;;;;;2039659;28;20055;-80
2023/07/25 05:24:03;;;;;;;9.18;6.35;;;;;;;;;;2045827;28;20031;-80
2023/07/25 05:25:22;;;;;;;7.38;6.00;;;;;;;;;;2051811;28;20118;-80
2023/07/25 05:26:41;;;;;;;8.60;7.07;;;;;;;;;;2047928;29;20396;-80
2023/07/25 05:28:00;;;;;;;8.13;6.20;;;;;;;;;;2039080;28;20576;-80
2023/07/25 05:29:19;;;;;;;8.63;6.13;;;;;;;;;;2042779;28;20102;-81
2023/07/25 05:30:38;;;;;;;7.63;6.95;;;;;;;;;;2051706;28;20052;-81
2023/07/25 05:31:57;;;;;;;7.30;6.35;;;;;;;;;;2039112;29;20028;-80
2023/07/25 05:33:16;;;;;;;10.65;6.85;;;;;;;;;;2036480;28;20115;-81
2023/07/25 05:34:34;;;;;;;5.90;5.40;;;;;;;;;;2039900;28;20027;-81
2023/07/25 05:36:00;;;;;;;7.32;6.63;;;;;;;;;;2043849;28;20565;-81
2023/07/25 05:37:19;;;;;;;7.60;6.20;;;;;;;;;;2041072;28;20467;-80
2023/07/25 05:38:38;;;;;;;7.05;6.32;;;;;;;;;;2045352;28;20043;-81
2023/07/25 05:39:56;;;;;;;7.75;6.25;;;;;;;;;;2039555;28;20028;-80
2023/07/25 05:41:16;;;;;;;5.90;5.50;;;;;;;;;;2036369;28;20532;-81
2023/07/25 05:42:34;;;;;;;9.32;6.53;;;;;;;;;;2044357;28;20039;-81
2023/07/25 05:43:53;;;;;;;6.22;5.63;;;;;;;;;;2044892;28;20036;-80
2023/07/25 05:45:13;;;;;;;6.65;6.07;;;;;;;;;;2035102;29;20416;-81
2023/07/25 05:46:32;;;;;;;6.60;6.00;;;;;;;;;;2037365;28;20039;-81
2023/07/25 05:47:50;;;;;;;9.20;5.63;;;;;;;;;;2043073;28;20036;-80
2023/07/25 05:49:09;;;;;;;6.00;5.60;;;;;;;;;;2047601;28;20039;-81
2023/07/25 05:50:28;;;;;;;6.60;6.00;;;;;;;;;;2046595;28;20118;-81
2023/07/25 05:51:47;;;;;;;6.78;6.13;;;;;;;;;;2047829;28;20035;-82
2023/07/25 05:53:06;;;;;;;6.32;5.82;;;;;;;;;;2040455;28;20107;-81
2023/07/25 05:54:25;;;;;;;8.82;6.00;;;;;;;;;;2043812;29;20496;-80
2023/07/25 05:55:45;;;;;;;5.80;5.30;;;;;;;;;;2048273;29;20472;-81
2023/07/25 05:57:05;;;;;;;5.70;5.28;;;;;;;;;;2039451;29;20409;-80
2023/07/25 05:58:24;;;;;;;7.38;5.75;;;;;;;;;;2045133;28;20488;-81
2023/07/25 05:59:43;;;;;;;7.05;5.60;;;;;;;;;;2047799;28;20028;-81
2023/07/25 06:01:02;;;;;;;7.65;5.85;;;;;;;;;;2048806;28;20032;-80
2023/07/25 06:02:21;;;;;;;8.80;5.38;;;;;;;;;;2039479;29;20036;-81
2023/07/25 06:03:40;;;;;;;6.72;6.07;;;;;;;;;;2044709;28;20102;-82
2023/07/25 06:04:59;;;;;;;5.85;5.20;;;;;;;;;;2047029;29;20031;-81
2023/07/25 06:06:19;;;;;;;6.22;5.70;;;;;;;;;;2037920;28;20023;-81
2023/07/25 06:07:37;;;;;;;7.07;6.30;;;;;;;;;;2035603;29;20063;-81
2023/07/25 06:08:56;;;;;;;6.75;5.32;;;;;;;;;;2045285;29;20023;-81
2023/07/25 06:10:16;;;;;;;6.65;6.05;;;;;;;;;;2039875;28;20032;-81
2023/07/25 06:11:35;;;;;;;7.93;5.90;;;;;;;;;;2043880;29;20298;-81
2023/07/25 06:12:54;;;;;;;7.20;6.25;;;;;;;;;;2051650;28;20493;-80
2023/07/25 06:14:13;;;;;;;7.60;6.45;;;;;;;;;;2057878;28;20043;-80
2023/07/25 06:15:34;;;;;;;6.85;6.30;;;;;;;;;;2050572;28;20027;-80
2023/07/25 06:16:53;;;;;;;8.50;6.15;;;;;;;;;;2043959;28;20027;-81
2023/07/25 06:18:12;;;;;;;7.55;6.38;;;;;;;;;;2052791;28;20019;-80
2023/07/25 06:19:31;;;;;;;8.32;6.03;;;;;;;;;;2050676;28;20028;-80
2023/07/25 06:20:51;;;;;;;6.63;5.97;;;;;;;;;;2056405;28;20044;-80
2023/07/25 06:22:10;;;;;;;7.05;6.22;;;;;;;;;;2057279;28;20083;-81
2023/07/25 06:23:29;;;;;;;5.93;5.53;;;;;;;;;;2049589;28;20031;-81
2023/07/25 06:24:48;;;;;;;6.38;5.75;;;;;;;;;;2053621;29;20035;-80
2023/07/25 06:26:07;;;;;;;9.15;5.80;;;;;;;;;;2048775;28;20028;-81
2023/07/25 06:27:27;;;;;;;6.15;5.57;;;;;;;;;;2051045;28;20032;-80
2023/07/25 06:28:46;;;;;;;6.40;5.82;;;;;;;;;;2048183;28;20035;-81
2023/07/25 06:30:05;;;;;;;6.28;5.78;;;;;;;;;;2049222;28;20047;-81
2023/07/25 06:31:24;;;;;;;6.05;5.55;;;;;;;;;;2041578;29;20036;-81
2023/07/25 06:32:43;;;;;;;6.75;5.85;;;;;;;;;;2047081;29;20040;-81
2023/07/25 06:34:02;;;;;;;6.00;5.50;;;;;;;;;;2040501;29;20036;-81
2023/07/25 06:35:22;;;;;;;5.57;5.18;;;;;;;;;;2045647;29;20512;-81
2023/07/25 06:36:40;;;;;;;5.90;5.43;;;;;;;;;;2040839;29;20039;-81
2023/07/25 06:37:59;;;;;;;5.65;5.28;;;;;;;;;;2046272;28;20114;-81
2023/07/25 06:39:19;;;;;;;6.10;5.57;;;;;;;;;;2040425;28;20056;-80
2023/07/25 06:40:38;;;;;;;6.15;5.57;;;;;;;;;;2040425;28;20023;-80
2023/07/25 06:41:57;;;;;;;6.65;5.45;;;;;;;;;;2045534;29;20039;-81
2023/07/25 06:43:16;;;;;;;7.88;5.55;;;;;;;;;;2047334;29;20032;-81
2023/07/25 06:44:35;;;;;;;6.85;5.95;;;;;;;;;;2050074;28;20102;-81
2023/07/25 06:45:54;;;;;;;5.93;5.22;;;;;;;;;;2039657;28;20126;-81
2023/07/25 06:47:13;;;;;;;5.78;5.35;;;;;;;;;;2045487;28;20043;-80
2023/07/25 06:48:32;;;;;;;8.52;5.30;;;;;;;;;;2040993;29;20028;-81
2023/07/25 06:49:51;;;;;;;6.05;5.47;;;;;;;;;;2045624;28;20028;-80
2023/07/25 06:51:10;;;;;;;7.95;5.55;;;;;;;;;;2040269;28;20516;-81
2023/07/25 06:52:29;;;;;;;6.43;5.82;;;;;;;;;;2045003;29;20046;-81
2023/07/25 06:53:48;;;;;;;6.97;5.93;;;;;;;;;;2048167;28;20024;-80
2023/07/25 06:55:08;;;;;;;6.30;5.30;;;;;;;;;;2044988;28;20052;-81
2023/07/25 06:56:27;;;;;;;6.28;5.78;;;;;;;;;;2039040;28;20043;-80
2023/07/25 06:57:47;;;;;;;6.65;5.25;;;;;;;;;;2045703;28;20496;-80
2023/07/25 06:59:06;;;;;;;6.43;5.88;;;;;;;;;;2041678;28;20028;-81
2023/07/25 07:00:25;;;;;;;6.30;5.80;;;;;;;;;;2045650;29;20439;-81
2023/07/25 07:01:44;;;;;;;6.85;6.07;;;;;;;;;;2049191;28;20035;-80
2023/07/25 07:03:06;;;;;;;6.82;5.85;;;;;;;;;;2047922;29;20036;-81
2023/07/25 07:04:24;;;;;;;6.28;5.60;;;;;;;;;;2044778;28;20025;-81
2023/07/25 07:05:51;;;;;;;6.57;6.05;;;;;;;;;;2037876;29;20023;-81
2023/07/25 07:07:10;;;;;;;7.85;5.03;;;;;;;;;;2039188;28;20119;-81
2023/07/25 07:08:28;;;;;;;8.38;5.18;;;;;;;;;;2043255;28;20496;-81
2023/07/25 07:09:47;;;;;;;8.32;4.85;;;;;;;;;;2046045;28;20027;-81
2023/07/25 07:11:06;;;;;;;5.78;5.20;;;;;;;;;;2049171;28;20035;-80
2023/07/25 07:12:26;;;;;;;6.85;5.75;;;;;;;;;;2047769;28;20384;-81
2023/07/25 07:13:45;;;;;;;6.70;6.20;;;;;;;;;;2044538;28;20039;-81
2023/07/25 07:15:04;;;;;;;5.50;5.00;;;;;;;;;;2044791;28;20023;-81
2023/07/25 07:16:22;;;;;;;6.05;4.95;;;;;;;;;;2049003;28;20031;-80
2023/07/25 07:17:42;;;;;;;5.55;5.05;;;;;;;;;;2039890;29;20031;-81
2023/07/25 07:19:01;;;;;;;6.07;5.28;;;;;;;;;;2046333;28;20023;-81
2023/07/25 07:20:20;;;;;;;7.03;5.55;;;;;;;;;;2039806;29;20078;-80
2023/07/25 07:21:39;;;;;;;8.55;5.07;;;;;;;;;;2045775;29;20031;-81
2023/07/25 07:22:58;;;;;;;8.52;5.45;;;;;;;;;;2040354;28;20509;-81
2023/07/25 07:24:17;;;;;;;8.00;5.80;;;;;;;;;;2045538;28;20035;-81
2023/07/25 07:25:36;;;;;;;5.50;5.10;;;;;;;;;;2039957;29;20027;-81
2023/07/25 07:26:55;;;;;;;5.53;5.13;;;;;;;;;;2041504;28;20344;-80
2023/07/25 07:28:15;;;;;;;8.20;5.55;;;;;;;;;;2040040;28;20044;-81
2023/07/25 07:29:34;;;;;;;6.07;5.10;;;;;;;;;;2038488;29;20127;-80
2023/07/25 07:30:53;;;;;;;5.22;4.82;;;;;;;;;;2044895;28;20031;-81
2023/07/25 07:32:12;;;;;;;5.85;5.40;;;;;;;;;;2046923;29;20085;-81
2023/07/25 07:33:33;;;;;;;5.63;5.22;;;;;;;;;;2048192;29;20043;-81
2023/07/25 07:34:52;;;;;;;5.65;5.20;;;;;;;;;;2043412;28;20024;-81
2023/07/25 07:36:11;;;;;;;5.57;5.07;;;;;;;;;;2045528;28;20027;-81
2023/07/25 07:37:30;;;;;;;7.43;5.05;;;;;;;;;;2043535;28;20040;-80
2023/07/25 07:38:49;;;;;;;6.28;5.30;;;;;;;;;;2037175;29;20032;-81
2023/07/25 07:40:08;;;;;;;8.75;5.38;;;;;;;;;;2047057;28;20110;-80
2023/07/25 07:41:27;;;;;;;6.10;4.60;;;;;;;;;;2048727;28;20601;-81
2023/07/25 07:42:46;;;;;;;6.45;5.30;;;;;;;;;;2036641;29;20032;-81
2023/07/25 07:44:04;;;;;;;5.65;5.15;;;;;;;;;;2048466;28;20067;-82
2023/07/25 07:45:25;;;;;;;5.38;4.97;;;;;;;;;;2048601;28;20597;-82
2023/07/25 07:46:44;;;;;;;5.68;5.15;;;;;;;;;;2047596;28;20027;-81
2023/07/25 07:48:03;;;;;;;5.68;5.18;;;;;;;;;;2039596;29;20067;-81
2023/07/25 07:49:22;;;;;;;9.55;5.85;;;;;;;;;;2036492;29;20036;-81
2023/07/25 07:50:42;;;;;;;9.63;5.80;;;;;;;;;;2044770;28;20595;-81
2023/07/25 07:52:02;;;;;;;7.53;5.63;;;;;;;;;;2049837;28;20035;-82
2023/07/25 07:53:20;;;;;;;6.95;5.35;;;;;;;;;;2039766;29;20448;-82